Time;durP1;ratioP1;P1;durP2;ratioP2;P2;SDS_P1;SDS_P2;PMS_P1;PMS_P2;Temp;Humidity;BMP_temperature;BMP_pressure;BME280_temperature;BME280_humidity;BME280_pressure;Samples;Min_cycle;Max_cycle;Signal;HPM_P1;HPM_P2
2022/05/17 00:01:04;;;;;;;8.03;7.23;;;;;;;;;;5030257;28;20244;-74
2022/05/17 00:03:30;;;;;;;8.00;6.10;;;;;;;;;;5021691;28;20682;-74
2022/05/17 00:05:57;;;;;;;7.20;6.50;;;;;;;;;;5025990;28;20577;-74
2022/05/17 00:08:24;;;;;;;6.83;6.13;;;;;;;;;;5031489;28;20214;-74
2022/05/17 00:10:50;;;;;;;9.57;7.67;;;;;;;;;;5032238;28;20186;-74
2022/05/17 00:13:17;;;;;;;6.90;6.17;;;;;;;;;;5024916;28;20213;-74
2022/05/17 00:15:45;;;;;;;8.13;7.33;;;;;;;;;;5028659;28;20182;-74
2022/05/17 00:18:13;;;;;;;8.43;6.70;;;;;;;;;;5023664;28;20684;-74
2022/05/17 00:20:44;;;;;;;7.73;6.87;;;;;;;;;;5026168;28;20261;-74
2022/05/17 00:23:19;;;;;;;10.63;7.20;;;;;;;;;;5024888;28;20178;-74
2022/05/17 00:25:50;;;;;;;11.93;6.90;;;;;;;;;;5021359;28;20225;-74
2022/05/17 00:28:19;;;;;;;7.93;6.80;;;;;;;;;;5021267;28;20210;-74
2022/05/17 00:30:45;;;;;;;10.90;6.90;;;;;;;;;;5038458;28;20216;-74
2022/05/17 00:33:12;;;;;;;7.93;6.20;;;;;;;;;;5019438;28;20236;-74
2022/05/17 00:35:45;;;;;;;9.93;6.70;;;;;;;;;;5020671;28;20183;-74
2022/05/17 00:38:12;;;;;;;7.60;6.90;;;;;;;;;;5021787;28;20789;-74
2022/05/17 00:40:40;;;;;;;7.30;6.57;;;;;;;;;;5028413;28;20232;-74
2022/05/17 00:43:07;;;;;;;8.80;7.73;;;;;;;;;;5017698;28;20178;-74
2022/05/17 00:45:34;;;;;;;9.13;7.20;;;;;;;;;;5016824;28;20202;-74
2022/05/17 00:48:04;;;;;;;8.07;6.67;;;;;;;;;;5021934;28;20237;-74
2022/05/17 00:50:32;;;;;;;7.50;6.80;;;;;;;;;;5017372;28;20179;-74
2022/05/17 00:53:04;;;;;;;7.33;6.37;;;;;;;;;;5020953;28;20183;-74
2022/05/17 00:55:39;;;;;;;8.17;7.47;;;;;;;;;;5024322;28;20724;-74
2022/05/17 00:58:26;;;;;;;7.87;7.07;;;;;;;;;;5018179;28;20202;-74
2022/05/17 01:01:02;;;;;;;7.60;6.60;;;;;;;;;;5026933;28;20186;-74
2022/05/17 01:03:42;;;;;;;8.97;7.90;;;;;;;;;;5016356;28;20341;-74
2022/05/17 01:06:09;;;;;;;11.43;8.07;;;;;;;;;;5020707;28;20268;-74
2022/05/17 01:08:35;;;;;;;7.40;6.70;;;;;;;;;;5016813;28;21380;-74
2022/05/17 01:11:01;;;;;;;7.70;6.90;;;;;;;;;;5017099;28;20215;-74
2022/05/17 01:16:13;;;;;;;7.17;6.47;;;;;;;;;;5017574;28;20579;-74
2022/05/17 01:18:40;;;;;;;10.13;7.37;;;;;;;;;;5015295;28;20207;-74
2022/05/17 01:21:06;;;;;;;7.17;6.43;;;;;;;;;;5019064;28;20603;-74
2022/05/17 01:23:32;;;;;;;8.77;6.57;;;;;;;;;;5021078;28;20205;-74
2022/05/17 01:25:58;;;;;;;8.17;6.83;;;;;;;;;;5024143;28;20178;-74
2022/05/17 01:28:26;;;;;;;7.87;7.07;;;;;;;;;;5022358;28;20265;-74
2022/05/17 01:30:52;;;;;;;7.70;6.87;;;;;;;;;;5018256;28;20196;-74
2022/05/17 01:33:20;;;;;;;8.93;7.43;;;;;;;;;;5025769;28;20179;-74
2022/05/17 01:35:47;;;;;;;8.07;7.00;;;;;;;;;;5018212;28;20610;-74
2022/05/17 01:38:13;;;;;;;8.90;6.83;;;;;;;;;;5019176;28;20200;-74
2022/05/17 01:40:39;;;;;;;7.60;6.90;;;;;;;;;;5021275;28;20197;-74
2022/05/17 01:43:06;;;;;;;7.63;6.87;;;;;;;;;;5023017;28;20578;-74
2022/05/17 01:45:32;;;;;;;9.50;6.53;;;;;;;;;;5022635;28;20207;-74
2022/05/17 01:47:59;;;;;;;6.53;5.83;;;;;;;;;;5019653;28;20206;-74
2022/05/17 01:50:25;;;;;;;7.87;6.30;;;;;;;;;;5021018;28;20698;-74
2022/05/17 01:52:51;;;;;;;8.80;6.60;;;;;;;;;;5022654;28;20195;-74
2022/05/17 01:55:17;;;;;;;9.43;7.07;;;;;;;;;;5023884;28;20518;-74
2022/05/17 01:57:43;;;;;;;8.37;7.17;;;;;;;;;;5027009;28;20209;-74
2022/05/17 02:00:12;;;;;;;8.97;7.60;;;;;;;;;;5024325;28;20178;-74
2022/05/17 02:02:39;;;;;;;6.57;5.97;;;;;;;;;;5021816;28;20183;-74
2022/05/17 02:05:05;;;;;;;7.63;6.90;;;;;;;;;;5019270;28;20183;-74
2022/05/17 02:07:31;;;;;;;6.10;5.50;;;;;;;;;;5031184;28;20194;-74
2022/05/17 02:09:57;;;;;;;6.40;5.57;;;;;;;;;;5030954;28;20229;-74
2022/05/17 02:12:24;;;;;;;7.77;6.87;;;;;;;;;;5020721;28;20721;-74
2022/05/17 02:14:50;;;;;;;8.60;6.30;;;;;;;;;;5022252;28;20191;-74
2022/05/17 02:17:16;;;;;;;6.77;6.17;;;;;;;;;;5026450;28;20178;-74
2022/05/17 02:19:43;;;;;;;6.07;5.47;;;;;;;;;;5017797;28;20188;-74
2022/05/17 02:22:10;;;;;;;7.43;6.30;;;;;;;;;;5025375;28;20193;-74
2022/05/17 02:24:37;;;;;;;8.83;6.93;;;;;;;;;;5017857;28;20187;-74
2022/05/17 02:27:03;;;;;;;7.47;6.37;;;;;;;;;;5018184;28;20182;-74
2022/05/17 02:29:30;;;;;;;8.63;7.50;;;;;;;;;;5018908;28;20934;-74
2022/05/17 02:31:57;;;;;;;9.83;7.60;;;;;;;;;;5019094;28;20201;-74
2022/05/17 02:34:23;;;;;;;11.70;7.10;;;;;;;;;;5018091;28;20182;-74
2022/05/17 02:36:50;;;;;;;10.07;7.10;;;;;;;;;;5018546;28;20754;-74
2022/05/17 02:39:16;;;;;;;8.90;8.00;;;;;;;;;;5021077;28;20267;-74
2022/05/17 02:41:42;;;;;;;8.00;7.20;;;;;;;;;;5029059;28;20193;-74
2022/05/17 02:44:17;;;;;;;7.67;6.63;;;;;;;;;;5018775;28;20273;-74
2022/05/17 02:46:43;;;;;;;8.37;7.10;;;;;;;;;;5024073;28;20194;-74
2022/05/17 02:49:09;;;;;;;7.63;6.63;;;;;;;;;;5018409;28;20580;-74
2022/05/17 02:51:36;;;;;;;9.70;7.90;;;;;;;;;;5024029;28;20183;-74
2022/05/17 02:54:05;;;;;;;7.30;6.60;;;;;;;;;;5025784;28;20183;-74
2022/05/17 02:56:32;;;;;;;8.97;7.60;;;;;;;;;;5020184;28;20194;-74
2022/05/17 02:58:58;;;;;;;7.70;6.97;;;;;;;;;;5024496;28;20203;-74
2022/05/17 03:01:24;;;;;;;7.80;6.83;;;;;;;;;;5020881;28;20198;-74
2022/05/17 03:03:50;;;;;;;6.00;5.40;;;;;;;;;;5022451;28;20246;-74
2022/05/17 03:06:17;;;;;;;6.00;5.30;;;;;;;;;;5020327;28;20183;-74
2022/05/17 03:08:43;;;;;;;7.63;6.70;;;;;;;;;;5021896;28;20257;-74
2022/05/17 03:11:09;;;;;;;7.23;6.40;;;;;;;;;;5020532;28;20262;-74
2022/05/17 03:13:36;;;;;;;8.50;6.63;;;;;;;;;;5025115;28;20270;-75
2022/05/17 03:16:02;;;;;;;7.43;6.03;;;;;;;;;;5020429;28;20178;-74
2022/05/17 03:18:28;;;;;;;6.70;6.00;;;;;;;;;;5023157;28;20211;-74
2022/05/17 03:20:54;;;;;;;7.00;5.97;;;;;;;;;;5032486;28;20670;-74
2022/05/17 03:23:20;;;;;;;6.83;6.13;;;;;;;;;;5023944;28;20198;-74
2022/05/17 03:25:46;;;;;;;8.43;6.23;;;;;;;;;;5017591;28;20818;-74
2022/05/17 03:28:13;;;;;;;6.87;6.17;;;;;;;;;;5022903;28;20222;-74
2022/05/17 03:30:39;;;;;;;8.77;5.40;;;;;;;;;;5032477;28;20175;-74
2022/05/17 03:33:06;;;;;;;7.80;6.60;;;;;;;;;;5028357;28;20194;-74
2022/05/17 03:35:32;;;;;;;8.33;6.23;;;;;;;;;;5028399;28;20265;-74
2022/05/17 03:37:58;;;;;;;6.70;6.10;;;;;;;;;;5032488;28;20210;-74
2022/05/17 03:40:24;;;;;;;10.23;7.07;;;;;;;;;;5030397;28;20193;-74
2022/05/17 03:42:51;;;;;;;6.90;6.30;;;;;;;;;;5028829;28;20187;-74
2022/05/17 03:45:17;;;;;;;7.53;6.73;;;;;;;;;;5021348;28;20657;-74
2022/05/17 03:47:44;;;;;;;8.03;7.23;;;;;;;;;;5020069;28;20199;-75
2022/05/17 03:50:12;;;;;;;7.90;6.93;;;;;;;;;;5031099;28;20175;-74
2022/05/17 03:52:38;;;;;;;8.53;7.60;;;;;;;;;;5028729;28;20646;-74
2022/05/17 03:55:06;;;;;;;9.27;6.63;;;;;;;;;;5025096;28;20339;-74
2022/05/17 03:57:32;;;;;;;7.53;6.73;;;;;;;;;;5027288;28;20616;-74
2022/05/17 03:59:58;;;;;;;8.50;6.57;;;;;;;;;;5032206;28;20237;-74
2022/05/17 04:02:25;;;;;;;7.67;6.37;;;;;;;;;;5025671;28;20186;-75
2022/05/17 04:04:55;;;;;;;6.40;5.73;;;;;;;;;;5024666;28;20222;-77
2022/05/17 04:07:21;;;;;;;6.00;5.40;;;;;;;;;;5036572;28;20182;-76
2022/05/17 04:09:48;;;;;;;6.63;5.43;;;;;;;;;;5023533;28;20226;-76
2022/05/17 04:12:14;;;;;;;7.50;5.23;;;;;;;;;;5027307;28;20218;-76
2022/05/17 04:14:41;;;;;;;6.77;5.70;;;;;;;;;;5025875;28;20205;-75
2022/05/17 04:17:07;;;;;;;7.00;5.90;;;;;;;;;;5019241;28;20186;-76
2022/05/17 04:19:34;;;;;;;7.00;6.00;;;;;;;;;;5031551;28;20696;-76
2022/05/17 04:22:00;;;;;;;6.93;6.23;;;;;;;;;;5020538;28;20183;-75
2022/05/17 04:24:26;;;;;;;7.37;6.50;;;;;;;;;;5019619;28;20191;-75
2022/05/17 04:26:53;;;;;;;8.90;7.43;;;;;;;;;;5037627;28;20294;-75
2022/05/17 04:29:20;;;;;;;8.87;6.60;;;;;;;;;;5022629;28;20218;-78
2022/05/17 04:31:46;;;;;;;8.83;6.80;;;;;;;;;;5019157;28;20561;-75
2022/05/17 04:34:13;;;;;;;12.23;7.87;;;;;;;;;;5019537;28;20261;-75
2022/05/17 04:36:40;;;;;;;8.10;7.30;;;;;;;;;;5020753;28;20183;-74
2022/05/17 04:39:06;;;;;;;9.87;8.33;;;;;;;;;;5015825;28;20211;-75
2022/05/17 04:41:32;;;;;;;9.13;8.17;;;;;;;;;;5021523;28;20286;-75
2022/05/17 04:43:59;;;;;;;9.00;7.23;;;;;;;;;;5019883;28;20784;-75
2022/05/17 04:46:25;;;;;;;7.37;6.13;;;;;;;;;;5015148;28;20560;-75
2022/05/17 04:48:51;;;;;;;7.53;6.80;;;;;;;;;;5016857;28;20281;-75
2022/05/17 04:51:18;;;;;;;10.00;7.47;;;;;;;;;;5018625;28;20210;-75
2022/05/17 04:53:44;;;;;;;12.17;8.33;;;;;;;;;;5019730;28;20211;-75
2022/05/17 04:56:12;;;;;;;11.33;7.67;;;;;;;;;;5025105;28;20226;-75
2022/05/17 04:58:40;;;;;;;8.00;7.20;;;;;;;;;;5033803;28;20704;-74
2022/05/17 05:01:06;;;;;;;10.67;8.70;;;;;;;;;;5025100;28;20202;-74
2022/05/17 05:03:32;;;;;;;9.00;8.20;;;;;;;;;;5019247;28;20249;-74
2022/05/17 05:05:58;;;;;;;8.80;7.93;;;;;;;;;;5019858;28;20198;-74
2022/05/17 05:08:25;;;;;;;9.93;7.70;;;;;;;;;;5022898;28;20218;-74
2022/05/17 05:10:51;;;;;;;8.13;7.33;;;;;;;;;;5018951;28;20214;-74
2022/05/17 05:13:18;;;;;;;9.53;8.53;;;;;;;;;;5018118;28;20193;-74
2022/05/17 05:15:45;;;;;;;9.80;8.80;;;;;;;;;;5022838;28;20183;-75
2022/05/17 05:18:12;;;;;;;9.10;8.30;;;;;;;;;;5026726;28;20693;-76
2022/05/17 05:20:43;;;;;;;9.13;8.20;;;;;;;;;;5023252;28;20198;-75
2022/05/17 05:23:09;;;;;;;9.07;8.17;;;;;;;;;;5024575;28;20693;-76
2022/05/17 05:25:47;;;;;;;10.57;8.00;;;;;;;;;;5028994;28;20193;-76
2022/05/17 05:28:13;;;;;;;9.33;8.43;;;;;;;;;;5025436;28;20220;-76
2022/05/17 05:30:40;;;;;;;9.73;8.70;;;;;;;;;;5027902;28;20174;-76
2022/05/17 05:33:06;;;;;;;11.43;9.23;;;;;;;;;;5034400;28;20273;-76
2022/05/17 05:35:33;;;;;;;8.60;7.80;;;;;;;;;;5017904;28;20211;-75
2022/05/17 05:37:59;;;;;;;9.90;9.00;;;;;;;;;;5015113;28;20195;-75
2022/05/17 05:40:46;;;;;;;10.93;9.07;;;;;;;;;;5021009;28;20256;-75
2022/05/17 05:43:12;;;;;;;10.20;9.20;;;;;;;;;;5018586;28;20179;-75
2022/05/17 05:45:39;;;;;;;12.67;9.73;;;;;;;;;;5025710;28;20194;-75
2022/05/17 05:48:05;;;;;;;11.73;9.57;;;;;;;;;;5015001;28;20199;-76
2022/05/17 05:50:31;;;;;;;11.40;10.30;;;;;;;;;;5012959;28;20194;-75
2022/05/17 05:53:02;;;;;;;11.20;10.00;;;;;;;;;;5021966;28;20277;-76
2022/05/17 05:55:28;;;;;;;11.87;10.63;;;;;;;;;;5022467;28;20171;-76
2022/05/17 05:57:54;;;;;;;11.63;10.43;;;;;;;;;;5016760;28;20295;-76
2022/05/17 06:00:21;;;;;;;11.80;10.60;;;;;;;;;;5016836;28;20198;-74
2022/05/17 06:02:47;;;;;;;11.50;10.30;;;;;;;;;;5020489;28;20186;-74
2022/05/17 06:05:14;;;;;;;13.13;11.03;;;;;;;;;;5017067;28;20190;-75
2022/05/17 06:07:49;;;;;;;12.00;10.83;;;;;;;;;;5020638;28;20662;-74
2022/05/17 06:10:16;;;;;;;10.93;9.50;;;;;;;;;;5022617;28;20309;-75
2022/05/17 06:12:42;;;;;;;11.33;10.20;;;;;;;;;;5030666;28;20583;-75
2022/05/17 06:15:08;;;;;;;14.10;10.70;;;;;;;;;;5021730;28;20276;-75
2022/05/17 06:17:36;;;;;;;12.30;11.07;;;;;;;;;;5018383;28;20240;-75
2022/05/17 06:20:03;;;;;;;13.37;10.17;;;;;;;;;;5014341;28;20632;-75
2022/05/17 06:22:29;;;;;;;11.33;9.27;;;;;;;;;;5021497;28;20182;-74
2022/05/17 06:24:55;;;;;;;9.57;8.57;;;;;;;;;;5024196;28;20643;-74
2022/05/17 06:27:21;;;;;;;9.70;8.70;;;;;;;;;;5019386;28;20191;-74
2022/05/17 06:29:48;;;;;;;10.90;9.10;;;;;;;;;;5012752;28;20242;-74
2022/05/17 06:32:15;;;;;;;11.17;9.77;;;;;;;;;;5029673;28;20789;-75
2022/05/17 06:34:45;;;;;;;11.60;9.43;;;;;;;;;;5016641;28;21131;-74
2022/05/17 06:37:11;;;;;;;9.97;8.90;;;;;;;;;;5033360;28;20214;-75
2022/05/17 06:39:38;;;;;;;9.33;8.37;;;;;;;;;;5012376;28;20183;-74
2022/05/17 06:42:05;;;;;;;10.47;8.80;;;;;;;;;;5015834;28;20183;-74
2022/05/17 06:44:33;;;;;;;10.33;9.00;;;;;;;;;;5015331;28;20230;-74
2022/05/17 06:46:59;;;;;;;11.83;8.63;;;;;;;;;;5017308;28;20186;-75
2022/05/17 06:49:27;;;;;;;8.70;7.87;;;;;;;;;;5018770;28;20673;-76
2022/05/17 06:51:57;;;;;;;10.07;9.00;;;;;;;;;;5017267;28;20546;-76
2022/05/17 06:54:24;;;;;;;11.10;8.07;;;;;;;;;;5016317;28;20201;-75
2022/05/17 06:56:50;;;;;;;10.50;9.37;;;;;;;;;;5019877;28;20282;-75
2022/05/17 06:59:18;;;;;;;11.93;9.73;;;;;;;;;;5022399;28;20207;-76
2022/05/17 07:01:49;;;;;;;9.80;8.67;;;;;;;;;;5021326;28;20289;-75
2022/05/17 07:04:16;;;;;;;9.27;8.37;;;;;;;;;;5020162;28;20186;-75
2022/05/17 07:06:42;;;;;;;10.10;9.00;;;;;;;;;;5023786;28;20190;-75
2022/05/17 07:09:12;;;;;;;12.83;9.07;;;;;;;;;;5026342;28;20206;-75
2022/05/17 07:14:24;;;;;;;9.57;8.63;;;;;;;;;;5023909;28;20178;-76
2022/05/17 07:16:50;;;;;;;10.07;9.07;;;;;;;;;;5018919;28;20185;-76
2022/05/17 07:19:16;;;;;;;10.47;8.60;;;;;;;;;;5018817;28;20237;-75
2022/05/17 07:21:43;;;;;;;13.13;10.27;;;;;;;;;;5019457;28;20191;-76
2022/05/17 07:24:09;;;;;;;9.30;8.40;;;;;;;;;;5020459;28;20195;-75
2022/05/17 07:26:35;;;;;;;12.10;9.70;;;;;;;;;;5020442;28;20193;-76
2022/05/17 07:29:01;;;;;;;10.60;9.47;;;;;;;;;;5018024;28;22188;-75
2022/05/17 07:31:27;;;;;;;13.20;9.57;;;;;;;;;;5021384;28;20175;-76
2022/05/17 07:33:53;;;;;;;11.23;10.13;;;;;;;;;;5023674;28;20252;-76
2022/05/17 07:36:20;;;;;;;10.53;9.43;;;;;;;;;;5024009;28;20202;-76
2022/05/17 07:38:47;;;;;;;12.33;9.67;;;;;;;;;;5026291;28;20220;-75
2022/05/17 07:41:13;;;;;;;12.97;10.67;;;;;;;;;;5029406;28;20186;-76
2022/05/17 07:43:39;;;;;;;11.70;9.97;;;;;;;;;;5025190;28;20194;-75
2022/05/17 07:46:06;;;;;;;11.63;10.40;;;;;;;;;;5024342;28;20187;-75
2022/05/17 07:48:33;;;;;;;14.67;10.90;;;;;;;;;;5029379;28;20203;-75
2022/05/17 07:51:00;;;;;;;12.73;10.73;;;;;;;;;;5022177;28;20532;-75
2022/05/17 07:53:27;;;;;;;13.93;10.47;;;;;;;;;;5023387;28;20662;-75
2022/05/17 07:55:53;;;;;;;13.73;10.70;;;;;;;;;;5023590;28;20203;-75
2022/05/17 07:58:20;;;;;;;16.23;9.80;;;;;;;;;;5027994;28;20867;-74
2022/05/17 08:00:46;;;;;;;11.23;9.53;;;;;;;;;;5019097;28;20617;-75
2022/05/17 08:03:36;;;;;;;13.57;10.00;;;;;;;;;;5023072;28;20211;-75
2022/05/17 08:06:27;;;;;;;11.03;9.67;;;;;;;;;;5024303;28;20273;-75
2022/05/17 08:09:44;;;;;;;15.57;10.20;;;;;;;;;;5024088;28;20217;-75
2022/05/17 08:12:10;;;;;;;12.33;9.67;;;;;;;;;;5022656;28;20179;-75
2022/05/17 08:14:38;;;;;;;13.03;9.60;;;;;;;;;;5026263;28;20653;-75
2022/05/17 08:17:07;;;;;;;10.33;8.67;;;;;;;;;;5025097;28;20187;-75
2022/05/17 08:19:35;;;;;;;8.87;7.80;;;;;;;;;;5026480;28;20244;-77
2022/05/17 08:22:01;;;;;;;9.50;8.20;;;;;;;;;;5029730;28;20297;-77
2022/05/17 08:24:28;;;;;;;9.17;7.93;;;;;;;;;;5032590;28;20209;-77
2022/05/17 08:29:39;;;;;;;10.27;7.33;;;;;;;;;;5039176;28;22052;-74
2022/05/17 08:34:50;;;;;;;9.30;7.47;;;;;;;;;;5028367;28;20186;-76
2022/05/17 08:37:16;;;;;;;7.70;6.90;;;;;;;;;;5030031;28;20174;-76
2022/05/17 08:39:43;;;;;;;9.63;7.60;;;;;;;;;;5030999;28;20607;-76
2022/05/17 08:42:14;;;;;;;10.30;7.97;;;;;;;;;;5031472;28;20261;-76
2022/05/17 08:44:45;;;;;;;10.83;7.03;;;;;;;;;;5031901;28;20225;-77
2022/05/17 08:47:19;;;;;;;10.33;6.47;;;;;;;;;;5028007;28;20655;-77
2022/05/17 08:49:54;;;;;;;11.17;7.10;;;;;;;;;;5029652;28;20289;-76
2022/05/17 08:52:22;;;;;;;9.50;7.10;;;;;;;;;;5031907;28;20525;-77
2022/05/17 08:55:00;;;;;;;6.80;5.97;;;;;;;;;;5031761;28;20185;-77
2022/05/17 08:57:36;;;;;;;8.07;6.20;;;;;;;;;;5023717;28;20294;-76
2022/05/17 09:00:20;;;;;;;7.27;5.67;;;;;;;;;;5010230;28;20236;-76
2022/05/17 09:02:49;;;;;;;8.73;6.03;;;;;;;;;;5031686;28;20191;-76
2022/05/17 09:05:30;;;;;;;8.47;5.80;;;;;;;;;;5032364;28;20183;-77
2022/05/17 09:08:00;;;;;;;10.10;5.97;;;;;;;;;;5030650;28;20264;-77
2022/05/17 09:10:40;;;;;;;11.10;6.90;;;;;;;;;;5029650;28;20194;-77
2022/05/17 09:13:07;;;;;;;10.70;6.53;;;;;;;;;;5027335;28;20187;-76
2022/05/17 09:15:34;;;;;;;7.23;6.00;;;;;;;;;;5029615;28;20556;-76
2022/05/17 09:18:09;;;;;;;8.33;6.30;;;;;;;;;;5028203;28;20206;-77
2022/05/17 09:20:36;;;;;;;7.20;6.50;;;;;;;;;;5011690;28;20209;-76
2022/05/17 09:23:03;;;;;;;7.90;6.47;;;;;;;;;;5012581;28;20183;-76
2022/05/17 09:25:47;;;;;;;6.00;4.73;;;;;;;;;;5017380;28;20202;-76
2022/05/17 09:28:18;;;;;;;8.87;5.33;;;;;;;;;;5011772;28;20195;-76
2022/05/17 09:30:45;;;;;;;8.70;4.80;;;;;;;;;;5019642;28;20190;-77
2022/05/17 09:33:14;;;;;;;7.23;4.00;;;;;;;;;;5043285;28;20259;-77
2022/05/17 09:35:45;;;;;;;5.93;3.77;;;;;;;;;;5037226;28;20318;-79
2022/05/17 09:38:16;;;;;;;6.03;4.07;;;;;;;;;;5028289;28;20288;-76
2022/05/17 09:40:48;;;;;;;5.77;3.77;;;;;;;;;;5023573;28;20216;-75
2022/05/17 09:43:16;;;;;;;5.53;3.70;;;;;;;;;;5028939;28;20221;-76
2022/05/17 09:45:45;;;;;;;5.57;3.70;;;;;;;;;;5034926;28;20211;-76
2022/05/17 09:48:13;;;;;;;5.23;4.00;;;;;;;;;;5025446;28;20190;-76
2022/05/17 09:53:40;;;;;;;4.07;3.17;;;;;;;;;;5024242;28;20178;-76
2022/05/17 09:56:07;;;;;;;4.23;2.80;;;;;;;;;;5029773;28;20185;-76
2022/05/17 09:58:36;;;;;;;3.87;2.10;;;;;;;;;;5025696;28;20198;-76
2022/05/17 10:01:22;;;;;;;4.00;2.23;;;;;;;;;;5030355;28;20202;-76
2022/05/17 10:04:00;;;;;;;4.83;2.60;;;;;;;;;;5031246;28;20182;-76
2022/05/17 10:06:32;;;;;;;4.57;2.80;;;;;;;;;;5031657;28;20205;-76
2022/05/17 10:09:03;;;;;;;5.07;2.70;;;;;;;;;;5030413;28;20222;-77
2022/05/17 10:11:40;;;;;;;4.20;2.63;;;;;;;;;;5022829;28;20266;-75
2022/05/17 10:14:09;;;;;;;3.77;2.53;;;;;;;;;;5026355;28;20186;-77
2022/05/17 10:16:45;;;;;;;4.57;3.10;;;;;;;;;;5027090;28;20709;-77
2022/05/17 10:19:20;;;;;;;6.10;3.70;;;;;;;;;;5027301;28;20205;-76
2022/05/17 10:22:08;;;;;;;6.30;4.10;;;;;;;;;;5045894;28;20189;-77
2022/05/17 10:24:44;;;;;;;5.70;4.03;;;;;;;;;;5027788;28;20784;-76
2022/05/17 10:27:34;;;;;;;6.13;4.00;;;;;;;;;;5023743;28;20189;-76
2022/05/17 10:30:26;;;;;;;6.80;4.30;;;;;;;;;;5033947;28;20213;-76
2022/05/17 10:32:59;;;;;;;5.13;3.97;;;;;;;;;;5026355;28;20278;-76
2022/05/17 10:35:30;;;;;;;8.37;4.53;;;;;;;;;;5029511;28;20587;-76
2022/05/17 10:37:59;;;;;;;6.20;4.80;;;;;;;;;;5028406;28;20241;-77
2022/05/17 10:40:30;;;;;;;9.23;4.50;;;;;;;;;;5026875;28;20187;-76
2022/05/17 10:43:30;;;;;;;4.47;3.70;;;;;;;;;;5021912;28;20198;-76
2022/05/17 10:46:00;;;;;;;3.23;2.90;;;;;;;;;;5028409;28;20178;-77
2022/05/17 10:48:32;;;;;;;5.80;3.50;;;;;;;;;;5029106;28;20557;-77
2022/05/17 10:51:02;;;;;;;4.00;2.90;;;;;;;;;;5022086;28;20185;-76
2022/05/17 10:53:47;;;;;;;4.60;3.07;;;;;;;;;;5028148;28;20217;-76
2022/05/17 10:56:13;;;;;;;3.43;3.10;;;;;;;;;;5023340;28;20178;-75
2022/05/17 10:58:39;;;;;;;4.90;2.93;;;;;;;;;;5026354;28;20718;-75
2022/05/17 11:01:10;;;;;;;5.10;3.10;;;;;;;;;;5023928;28;20197;-76
2022/05/17 11:03:45;;;;;;;5.63;3.10;;;;;;;;;;5025401;28;20662;-77
2022/05/17 11:06:32;;;;;;;3.30;2.47;;;;;;;;;;5037336;28;20186;-76
2022/05/17 11:09:11;;;;;;;3.40;2.97;;;;;;;;;;5026896;28;20213;-76
2022/05/17 11:11:43;;;;;;;3.47;2.47;;;;;;;;;;5030191;28;20224;-76
2022/05/17 11:14:13;;;;;;;4.27;2.60;;;;;;;;;;5021159;28;20182;-75
2022/05/17 11:17:00;;;;;;;5.60;3.00;;;;;;;;;;5025736;28;20171;-76
2022/05/17 11:19:27;;;;;;;4.43;3.20;;;;;;;;;;5020343;28;20230;-76
2022/05/17 11:22:01;;;;;;;3.83;2.83;;;;;;;;;;5018286;28;20201;-74
2022/05/17 11:24:36;;;;;;;4.70;3.00;;;;;;;;;;5034783;28;20216;-76
2022/05/17 11:27:26;;;;;;;3.17;2.50;;;;;;;;;;5028967;28;20183;-74
2022/05/17 11:30:13;;;;;;;5.50;2.77;;;;;;;;;;5008829;28;20287;-76
2022/05/17 11:32:42;;;;;;;3.67;2.40;;;;;;;;;;5032726;28;20190;-77
2022/05/17 11:35:27;;;;;;;4.50;2.57;;;;;;;;;;5030577;28;20182;-77
2022/05/17 11:37:54;;;;;;;5.93;2.83;;;;;;;;;;5033863;28;20345;-77
2022/05/17 11:40:38;;;;;;;3.37;2.83;;;;;;;;;;5025278;28;20218;-77
2022/05/17 11:45:53;;;;;;;6.53;2.97;;;;;;;;;;5028503;28;20177;-77
2022/05/17 11:48:21;;;;;;;5.83;2.80;;;;;;;;;;5023104;28;20202;-81
2022/05/17 11:50:51;;;;;;;2.60;2.40;;;;;;;;;;5027284;28;20201;-76
2022/05/17 11:53:23;;;;;;;4.07;3.20;;;;;;;;;;5028070;28;20667;-76
2022/05/17 11:56:15;;;;;;;4.63;2.50;;;;;;;;;;5027515;28;20737;-75
2022/05/17 11:58:44;;;;;;;5.20;3.43;;;;;;;;;;5026761;28;20238;-72
2022/05/17 12:01:31;;;;;;;4.37;3.50;;;;;;;;;;5025139;28;20214;-72
2022/05/17 12:04:02;;;;;;;3.33;2.77;;;;;;;;;;5026650;28;20893;-74
2022/05/17 12:06:28;;;;;;;2.87;2.50;;;;;;;;;;5029340;28;20192;-76
2022/05/17 12:08:55;;;;;;;3.67;2.70;;;;;;;;;;5014470;28;20747;-75
2022/05/17 12:11:34;;;;;;;4.27;2.87;;;;;;;;;;5024010;28;20325;-76
2022/05/17 12:14:21;;;;;;;4.47;2.50;;;;;;;;;;5022441;28;20191;-75
2022/05/17 12:17:07;;;;;;;5.03;2.70;;;;;;;;;;5019479;28;20179;-75
2022/05/17 12:19:36;;;;;;;4.00;2.70;;;;;;;;;;5016967;28;20219;-76
2022/05/17 12:22:06;;;;;;;3.33;2.50;;;;;;;;;;5018499;28;20243;-75
2022/05/17 12:24:51;;;;;;;3.43;2.43;;;;;;;;;;5028363;28;20175;-76
2022/05/17 12:27:20;;;;;;;3.27;2.63;;;;;;;;;;5028662;28;20679;-76
2022/05/17 12:32:38;;;;;;;2.70;2.20;;;;;;;;;;5038407;28;20194;-78
2022/05/17 12:35:05;;;;;;;4.10;2.40;;;;;;;;;;5032159;28;20182;-80
2022/05/17 12:37:32;;;;;;;4.63;2.50;;;;;;;;;;5024301;28;20198;-80
2022/05/17 12:43:03;;;;;;;3.37;2.10;;;;;;;;;;5023733;28;20193;-80
2022/05/17 12:45:31;;;;;;;2.87;2.20;;;;;;;;;;5030487;28;20184;-80
2022/05/17 12:47:59;;;;;;;5.50;2.43;;;;;;;;;;5043337;28;20248;-80
2022/05/17 12:50:29;;;;;;;5.37;2.37;;;;;;;;;;5028566;28;20207;-80
2022/05/17 12:52:56;;;;;;;4.10;2.47;;;;;;;;;;5026592;28;20181;-80
2022/05/17 12:55:27;;;;;;;4.10;2.60;;;;;;;;;;5026351;28;20717;-80
2022/05/17 12:57:54;;;;;;;2.53;2.07;;;;;;;;;;5032918;28;20201;-80
2022/05/17 13:00:29;;;;;;;4.37;2.30;;;;;;;;;;5026842;28;20193;-81
2022/05/17 13:03:09;;;;;;;4.33;2.47;;;;;;;;;;5030444;28;20198;-81
2022/05/17 13:05:40;;;;;;;3.33;2.23;;;;;;;;;;5028631;28;20195;-75
2022/05/17 13:08:08;;;;;;;2.57;2.37;;;;;;;;;;5029395;28;20207;-76
2022/05/17 13:10:35;;;;;;;5.90;2.57;;;;;;;;;;5024966;28;20195;-75
2022/05/17 13:13:21;;;;;;;8.17;2.37;;;;;;;;;;5022820;28;20273;-76
2022/05/17 13:15:50;;;;;;;3.73;2.30;;;;;;;;;;5037659;28;20184;-75
2022/05/17 13:18:17;;;;;;;4.50;2.20;;;;;;;;;;5024059;28;20273;-77
2022/05/17 13:20:48;;;;;;;3.77;2.10;;;;;;;;;;5020894;28;20274;-76
2022/05/17 13:23:15;;;;;;;3.63;2.30;;;;;;;;;;5020403;28;20445;-76
2022/05/17 13:25:43;;;;;;;3.10;2.33;;;;;;;;;;5029287;28;20197;-76
2022/05/17 13:28:10;;;;;;;6.10;2.70;;;;;;;;;;5017941;28;20853;-77
2022/05/17 13:30:41;;;;;;;2.70;2.30;;;;;;;;;;5025594;28;20191;-77
2022/05/17 13:33:09;;;;;;;4.37;2.73;;;;;;;;;;5022360;28;20185;-76
2022/05/17 13:35:40;;;;;;;6.00;2.10;;;;;;;;;;5023017;28;20226;-76
2022/05/17 13:38:12;;;;;;;2.53;1.80;;;;;;;;;;5026313;28;20784;-77
2022/05/17 13:40:40;;;;;;;1.40;1.30;;;;;;;;;;5018370;28;20812;-77
2022/05/17 13:43:25;;;;;;;1.50;1.30;;;;;;;;;;5034011;28;20546;-77
2022/05/17 13:45:57;;;;;;;1.33;1.10;;;;;;;;;;5013542;28;20901;-81
2022/05/17 13:48:24;;;;;;;3.00;1.37;;;;;;;;;;5022857;28;20208;-79
2022/05/17 13:50:53;;;;;;;1.90;1.10;;;;;;;;;;5019274;28;20189;-79
2022/05/17 13:53:20;;;;;;;2.50;1.30;;;;;;;;;;5040065;28;20178;-79
2022/05/17 13:55:46;;;;;;;1.60;1.03;;;;;;;;;;5028494;28;20177;-79
2022/05/17 13:58:14;;;;;;;1.87;1.23;;;;;;;;;;5020294;28;20218;-79
2022/05/17 14:00:55;;;;;;;2.57;1.00;;;;;;;;;;5026422;28;20190;-79
2022/05/17 14:03:23;;;;;;;1.47;1.10;;;;;;;;;;5027969;28;20209;-79
2022/05/17 14:05:52;;;;;;;1.50;1.20;;;;;;;;;;5019545;28;20265;-79
2022/05/17 14:14:01;;;;;;;1.57;1.00;;;;;;;;;;5024130;28;20203;-79
2022/05/17 14:16:30;;;;;;;1.37;0.90;;;;;;;;;;5024600;28;20188;-79
2022/05/17 14:18:59;;;;;;;0.87;0.87;;;;;;;;;;5027038;28;20251;-78
2022/05/17 14:21:25;;;;;;;4.68;1.20;;;;;;;;;;5028822;28;20734;-78
2022/05/17 14:23:52;;;;;;;2.28;1.20;;;;;;;;;;5027388;28;20606;-78
2022/05/17 14:26:19;;;;;;;1.52;1.00;;;;;;;;;;5027980;28;20188;-78
2022/05/17 14:28:47;;;;;;;1.83;1.40;;;;;;;;;;5029536;28;20575;-78
2022/05/17 14:31:21;;;;;;;1.85;1.30;;;;;;;;;;5031872;28;20181;-80
2022/05/17 14:33:47;;;;;;;2.47;1.25;;;;;;;;;;5022247;28;20287;-83
2022/05/17 14:36:16;;;;;;;1.77;1.20;;;;;;;;;;5025497;28;20211;-79
2022/05/17 14:38:42;;;;;;;1.10;1.00;;;;;;;;;;5024971;28;20588;-78
2022/05/17 14:41:08;;;;;;;1.30;1.02;;;;;;;;;;5027782;28;20780;-78
2022/05/17 14:43:35;;;;;;;2.97;1.20;;;;;;;;;;5034958;28;20188;-78
2022/05/17 14:46:01;;;;;;;4.30;1.20;;;;;;;;;;5026443;28;20213;-78
2022/05/17 14:48:28;;;;;;;1.88;0.95;;;;;;;;;;5027166;28;20209;-78
2022/05/17 14:50:57;;;;;;;1.48;1.17;;;;;;;;;;5026416;28;20232;-78
2022/05/17 14:53:23;;;;;;;1.63;1.08;;;;;;;;;;5028068;28;20172;-78
2022/05/17 14:55:51;;;;;;;1.63;1.00;;;;;;;;;;5028700;28;20572;-79
2022/05/17 14:58:19;;;;;;;0.90;0.90;;;;;;;;;;5029251;28;20205;-79
2022/05/17 15:00:46;;;;;;;1.25;1.00;;;;;;;;;;5028070;28;20205;-78
2022/05/17 15:03:21;;;;;;;1.38;1.10;;;;;;;;;;5028998;28;20186;-79
2022/05/17 15:05:49;;;;;;;2.45;1.42;;;;;;;;;;5026126;28;20169;-79
2022/05/17 15:08:15;;;;;;;1.20;1.10;;;;;;;;;;5024462;28;20194;-79
2022/05/17 15:10:42;;;;;;;2.30;1.20;;;;;;;;;;5025944;28;20201;-79
2022/05/17 15:13:08;;;;;;;2.28;1.30;;;;;;;;;;5028837;28;20210;-78
2022/05/17 15:15:34;;;;;;;2.15;1.30;;;;;;;;;;5028955;28;20248;-78
2022/05/17 15:18:04;;;;;;;1.45;1.30;;;;;;;;;;5029666;28;20205;-78
2022/05/17 15:20:31;;;;;;;2.75;1.33;;;;;;;;;;5029584;28;20190;-78